Time;durP1;ratioP1;P1;durP2;ratioP2;P2;SDS_P1;SDS_P2;PMS_P1;PMS_P2;Temp;Humidity;BMP_temperature;BMP_pressure;BME280_temperature;BME280_humidity;BME280_pressure;Samples;Min_cycle;Max_cycle;Signal;HPM_P1;HPM_P2
2021/01/30 00:00:30;;;;;;;5.10;3.50;;;16.70;48.60;;;;;;6142165;23;20140;-81
2021/01/30 00:02:56;;;;;;;4.88;3.55;;;16.60;48.90;;;;;;6118135;23;20195;-79
2021/01/30 00:05:23;;;;;;;5.40;3.42;;;16.60;48.80;;;;;;6093767;23;20198;-81
2021/01/30 00:07:48;;;;;;;5.40;3.88;;;16.60;48.70;;;;;;6141608;23;20137;-80
2021/01/30 00:10:15;;;;;;;5.57;3.95;;;16.60;48.90;;;;;;6117672;23;20216;-82
2021/01/30 00:12:41;;;;;;;6.07;3.88;;;16.60;49.00;;;;;;6115500;23;20183;-81
2021/01/30 00:15:10;;;;;;;4.10;3.28;;;16.60;49.20;;;;;;6140651;23;20192;-81
2021/01/30 00:17:38;;;;;;;5.95;3.70;;;16.60;48.70;;;;;;6118437;23;20173;-82
2021/01/30 00:20:06;;;;;;;4.43;3.65;;;16.60;48.90;;;;;;6141802;23;20274;-82
2021/01/30 00:22:32;;;;;;;4.93;3.50;;;16.60;48.60;;;;;;6141613;23;20216;-80
2021/01/30 00:24:57;;;;;;;5.18;3.50;;;16.60;48.90;;;;;;6093557;23;20152;-82
2021/01/30 00:27:23;;;;;;;4.97;3.47;;;16.60;49.50;;;;;;6117919;23;20159;-79
2021/01/30 00:29:51;;;;;;;5.32;3.78;;;16.50;49.50;;;;;;6117478;23;20152;-81
2021/01/30 00:32:18;;;;;;;4.95;3.45;;;16.50;49.80;;;;;;6118129;23;20155;-81
2021/01/30 00:34:44;;;;;;;4.20;3.20;;;16.50;49.40;;;;;;6117455;23;20158;-81
2021/01/30 00:37:23;;;;;;;3.75;3.10;;;16.50;49.00;;;;;;6093313;23;20183;-82
2021/01/30 00:39:52;;;;;;;4.38;3.50;;;16.50;49.20;;;;;;6141256;23;20171;-81
2021/01/30 00:42:22;;;;;;;4.30;3.28;;;16.50;49.60;;;;;;6092949;23;20176;-81
2021/01/30 00:44:50;;;;;;;4.72;3.38;;;16.50;49.10;;;;;;6117261;23;20132;-81
2021/01/30 00:47:16;;;;;;;6.25;3.70;;;16.60;48.70;;;;;;6142591;23;20136;-81
2021/01/30 00:49:45;;;;;;;4.40;3.67;;;16.60;48.60;;;;;;6116900;23;20162;-79
2021/01/30 00:52:13;;;;;;;5.18;3.63;;;16.60;48.80;;;;;;6118016;23;20137;-81
2021/01/30 00:54:39;;;;;;;4.85;3.50;;;16.60;48.70;;;;;;6116745;23;20159;-81
2021/01/30 00:57:06;;;;;;;4.68;3.88;;;16.60;49.50;;;;;;6093221;23;20206;-82
2021/01/30 00:59:41;;;;;;;5.15;3.55;;;16.50;49.20;;;;;;6142585;23;20128;-81
2021/01/30 01:02:08;;;;;;;4.53;3.53;;;16.50;48.90;;;;;;6141710;23;20144;-80
2021/01/30 01:04:35;;;;;;;6.00;3.85;;;16.50;49.20;;;;;;6117072;23;20159;-81
2021/01/30 01:07:01;;;;;;;4.53;3.15;;;16.50;49.30;;;;;;6116983;23;20234;-80
2021/01/30 01:09:27;;;;;;;5.18;3.67;;;16.50;48.90;;;;;;6142246;23;20136;-80
2021/01/30 01:11:52;;;;;;;4.95;3.60;;;16.50;49.40;;;;;;6116771;23;20201;-80
2021/01/30 01:14:19;;;;;;;4.55;3.58;;;16.50;49.00;;;;;;6116882;23;20155;-81
2021/01/30 01:16:45;;;;;;;4.82;3.42;;;16.50;48.80;;;;;;6116534;23;20172;-81
2021/01/30 01:19:12;;;;;;;5.30;3.47;;;16.50;49.20;;;;;;6093378;23;20176;-81
2021/01/30 01:21:38;;;;;;;4.55;3.63;;;16.50;48.90;;;;;;6093142;23;20210;-80
2021/01/30 01:24:14;;;;;;;4.75;3.40;;;16.50;49.20;;;;;;6116672;23;20155;-81
2021/01/30 01:26:43;;;;;;;5.70;3.92;;;16.50;48.90;;;;;;6140878;23;20139;-82
2021/01/30 01:29:09;;;;;;;5.28;3.67;;;16.50;49.90;;;;;;6116925;23;20151;-80
2021/01/30 01:31:48;;;;;;;5.22;3.80;;;16.50;49.00;;;;;;6092454;23;20152;-81
2021/01/30 01:34:14;;;;;;;5.47;3.40;;;16.50;49.20;;;;;;6141122;23;20271;-81
2021/01/30 01:36:39;;;;;;;4.82;3.60;;;16.50;49.40;;;;;;6116772;23;20172;-81
2021/01/30 01:39:05;;;;;;;4.80;3.60;;;16.40;49.20;;;;;;6093393;23;20148;-81
2021/01/30 01:41:31;;;;;;;5.13;3.85;;;16.40;49.50;;;;;;6143905;23;20456;-80
2021/01/30 01:43:58;;;;;;;6.22;3.70;;;16.40;49.20;;;;;;6116438;23;20532;-80
2021/01/30 01:46:37;;;;;;;5.63;3.60;;;16.40;49.10;;;;;;6116920;23;20136;-81
2021/01/30 01:49:12;;;;;;;5.97;3.83;;;16.40;49.10;;;;;;6094015;23;20469;-80
2021/01/30 01:51:44;;;;;;;4.20;3.17;;;16.40;49.00;;;;;;6117803;23;20136;-82
2021/01/30 01:54:15;;;;;;;5.13;3.67;;;16.40;49.10;;;;;;6141212;23;20132;-82
2021/01/30 01:56:45;;;;;;;4.95;3.50;;;16.40;49.40;;;;;;6092577;23;20199;-80
2021/01/30 01:59:16;;;;;;;4.72;3.45;;;16.40;49.30;;;;;;6141196;23;20133;-81
2021/01/30 02:01:42;;;;;;;4.78;3.50;;;16.50;49.10;;;;;;6141621;23;20156;-81
2021/01/30 02:04:10;;;;;;;4.88;3.35;;;16.50;48.90;;;;;;6143315;23;20199;-80
2021/01/30 02:06:37;;;;;;;4.18;3.50;;;16.40;49.00;;;;;;6140754;23;20136;-82
2021/01/30 02:09:09;;;;;;;5.60;3.50;;;16.40;48.80;;;;;;6116753;23;20136;-80
2021/01/30 02:11:35;;;;;;;4.80;3.38;;;16.50;49.00;;;;;;6116853;23;20184;-82
2021/01/30 02:14:03;;;;;;;4.55;3.40;;;16.40;48.90;;;;;;6117184;23;20143;-82
2021/01/30 02:16:49;;;;;;;4.25;3.10;;;16.50;48.90;;;;;;6140236;23;20172;-81
2021/01/30 02:19:45;;;;;;;5.30;3.47;;;16.40;49.20;;;;;;6141089;23;20164;-81
2021/01/30 02:22:31;;;;;;;5.20;3.65;;;16.40;49.10;;;;;;6140337;23;20499;-81
2021/01/30 02:25:17;;;;;;;4.28;3.40;;;16.40;48.90;;;;;;6141651;23;20170;-80
2021/01/30 02:28:01;;;;;;;5.25;3.40;;;16.40;49.10;;;;;;6140130;23;20201;-81
2021/01/30 02:30:30;;;;;;;4.80;3.65;;;16.40;49.00;;;;;;6140184;23;20132;-80
2021/01/30 02:33:17;;;;;;;4.22;3.50;;;16.40;49.00;;;;;;6116059;23;20152;-80
2021/01/30 02:35:59;;;;;;;4.50;3.47;;;16.40;48.90;;;;;;6117606;23;20156;-82
2021/01/30 02:38:27;;;;;;;5.07;3.50;;;16.40;48.50;;;;;;6116173;23;20178;-81
2021/01/30 02:40:58;;;;;;;4.95;3.40;;;16.40;49.00;;;;;;6116196;23;20151;-82
2021/01/30 02:43:30;;;;;;;4.75;3.42;;;16.50;48.70;;;;;;6117295;23;20140;-79
2021/01/30 02:46:01;;;;;;;4.80;3.55;;;16.40;48.90;;;;;;6092328;23;20160;-80
2021/01/30 02:48:36;;;;;;;4.72;3.50;;;16.40;49.20;;;;;;6116696;23;20650;-80
2021/01/30 02:51:03;;;;;;;4.43;3.13;;;16.40;48.90;;;;;;6093228;23;20147;-82
2021/01/30 02:53:35;;;;;;;4.97;3.40;;;16.40;49.00;;;;;;6116306;23;20148;-82
2021/01/30 02:56:01;;;;;;;4.00;3.25;;;16.40;48.80;;;;;;6140805;23;20160;-82
2021/01/30 02:58:42;;;;;;;4.63;3.22;;;16.50;48.70;;;;;;6141075;23;20177;-83
2021/01/30 03:01:09;;;;;;;4.18;3.17;;;16.50;48.90;;;;;;6140814;23;20140;-82
2021/01/30 03:03:36;;;;;;;4.63;3.42;;;16.50;49.00;;;;;;6140226;23;20168;-83
2021/01/30 03:06:40;;;;;;;5.53;3.65;;;16.50;48.90;;;;;;6140103;23;20553;-80
2021/01/30 03:09:16;;;;;;;3.85;3.15;;;16.40;48.90;;;;;;6027625;23;20205;-83
2021/01/30 03:11:47;;;;;;;5.38;3.65;;;16.40;48.90;;;;;;6008568;23;20189;-82
2021/01/30 03:14:19;;;;;;;5.63;3.65;;;16.40;49.00;;;;;;6027954;23;20139;-83
2021/01/30 03:16:45;;;;;;;4.90;3.53;;;16.40;48.90;;;;;;6051392;23;20185;-83
2021/01/30 03:19:21;;;;;;;5.35;3.45;;;16.40;48.80;;;;;;6052250;23;20146;-82
2021/01/30 03:21:56;;;;;;;4.63;3.40;;;16.40;48.80;;;;;;6028237;23;20157;-82
2021/01/30 03:24:29;;;;;;;4.97;3.40;;;16.40;48.60;;;;;;6051502;23;20158;-82
2021/01/30 03:26:56;;;;;;;5.45;3.33;;;16.40;48.80;;;;;;6052309;23;20142;-82
2021/01/30 03:29:22;;;;;;;5.05;3.50;;;16.40;48.70;;;;;;6052322;23;20154;-83
2021/01/30 03:31:49;;;;;;;4.85;3.58;;;16.40;48.90;;;;;;6051436;23;20142;-81
2021/01/30 03:34:15;;;;;;;5.03;3.20;;;16.40;48.90;;;;;;6052070;23;20631;-81
2021/01/30 03:36:41;;;;;;;3.97;3.10;;;16.40;48.50;;;;;;6050791;23;20197;-82
2021/01/30 03:39:12;;;;;;;3.63;3.05;;;16.50;48.40;;;;;;6052262;23;20239;-83
2021/01/30 03:41:44;;;;;;;5.13;3.88;;;16.40;48.40;;;;;;6052333;23;20146;-83
2021/01/30 03:44:19;;;;;;;4.90;3.70;;;16.40;48.90;;;;;;6139793;23;20144;-80
2021/01/30 03:46:46;;;;;;;4.63;3.47;;;16.40;48.60;;;;;;6141518;23;20219;-83
2021/01/30 03:49:12;;;;;;;4.93;3.25;;;16.40;48.30;;;;;;6115311;23;20524;-82
2021/01/30 03:51:38;;;;;;;4.18;3.10;;;16.40;48.90;;;;;;6143868;23;20143;-81
2021/01/30 03:54:04;;;;;;;4.55;3.10;;;16.40;48.80;;;;;;6116863;23;20491;-83
2021/01/30 03:56:32;;;;;;;4.25;3.20;;;16.40;48.70;;;;;;6117511;23;20164;-82
2021/01/30 03:58:59;;;;;;;4.35;3.33;;;16.40;48.80;;;;;;6094018;23;20164;-83
2021/01/30 04:01:33;;;;;;;4.43;3.05;;;16.40;48.70;;;;;;6117061;23;20141;-82
2021/01/30 04:03:58;;;;;;;4.65;3.45;;;16.40;48.80;;;;;;6142921;23;20132;-83
2021/01/30 04:06:24;;;;;;;4.15;3.47;;;16.40;48.70;;;;;;6143730;23;20187;-82
2021/01/30 04:08:50;;;;;;;6.15;4.30;;;16.40;48.90;;;;;;6143183;23;20223;-82
2021/01/30 04:11:15;;;;;;;4.53;3.20;;;16.40;48.70;;;;;;6144481;23;20133;-82
2021/01/30 04:13:41;;;;;;;4.35;3.30;;;16.40;48.70;;;;;;6146663;23;20139;-82
2021/01/30 04:16:12;;;;;;;4.20;3.20;;;16.40;48.70;;;;;;6172774;23;20131;-81
2021/01/30 04:18:37;;;;;;;5.30;3.50;;;16.40;48.60;;;;;;6146629;23;20132;-82
2021/01/30 04:21:03;;;;;;;4.88;3.40;;;16.40;48.40;;;;;;6172905;23;20192;-83
2021/01/30 04:23:29;;;;;;;4.18;2.90;;;16.40;48.30;;;;;;6172518;23;20163;-81
2021/01/30 04:25:56;;;;;;;5.05;3.63;;;16.40;48.60;;;;;;6172207;23;20136;-82
2021/01/30 04:28:23;;;;;;;5.35;3.50;;;16.40;48.60;;;;;;6172246;23;20618;-83
2021/01/30 04:30:49;;;;;;;4.70;3.47;;;16.40;48.70;;;;;;6172069;23;20545;-83
2021/01/30 04:33:14;;;;;;;4.78;3.20;;;16.40;48.50;;;;;;6171934;23;20143;-81
2021/01/30 04:35:41;;;;;;;5.35;3.30;;;16.40;48.30;;;;;;6171935;23;20139;-83
2021/01/30 04:38:08;;;;;;;4.53;3.72;;;16.40;48.50;;;;;;6171232;23;20547;-82
2021/01/30 04:40:40;;;;;;;5.63;3.28;;;16.40;48.70;;;;;;6172397;23;20467;-83
2021/01/30 04:43:29;;;;;;;4.57;3.33;;;16.40;48.30;;;;;;6145302;23;20253;-82
2021/01/30 04:46:38;;;;;;;5.20;3.40;;;16.40;48.30;;;;;;6146084;23;20194;-82
2021/01/30 04:49:20;;;;;;;4.25;3.38;;;16.40;48.80;;;;;;6172410;23;20151;-82
2021/01/30 04:51:48;;;;;;;4.35;3.05;;;16.40;48.40;;;;;;6172058;23;20140;-83
2021/01/30 04:54:28;;;;;;;4.50;3.35;;;16.40;48.60;;;;;;6144986;23;20564;-81
2021/01/30 04:57:06;;;;;;;4.55;3.25;;;16.40;48.60;;;;;;6122458;23;20175;-82
2021/01/30 04:59:45;;;;;;;4.00;3.38;;;16.40;48.40;;;;;;6145334;23;20143;-81
2021/01/30 05:02:18;;;;;;;5.43;3.60;;;16.40;48.50;;;;;;6171751;23;20131;-80
2021/01/30 05:04:51;;;;;;;4.40;3.25;;;16.40;48.60;;;;;;6171636;23;20132;-82
2021/01/30 05:07:36;;;;;;;4.82;3.20;;;16.40;48.60;;;;;;6144772;23;20136;-82
2021/01/30 05:10:15;;;;;;;4.85;3.50;;;16.30;48.70;;;;;;6171153;23;20218;-82
2021/01/30 05:13:05;;;;;;;4.00;3.08;;;16.40;48.50;;;;;;6139202;23;20678;-82
2021/01/30 05:15:36;;;;;;;4.22;3.13;;;16.40;48.50;;;;;;6140262;23;20145;-82
2021/01/30 05:18:09;;;;;;;4.00;3.08;;;16.40;48.60;;;;;;6142109;23;20171;-82
2021/01/30 05:20:38;;;;;;;3.95;3.13;;;16.30;48.50;;;;;;6116690;23;20140;-82
2021/01/30 05:23:05;;;;;;;4.93;3.60;;;16.30;48.60;;;;;;6091240;23;20140;-82
2021/01/30 05:25:31;;;;;;;3.97;3.28;;;16.30;48.50;;;;;;6116180;23;20139;-81
2021/01/30 05:28:03;;;;;;;5.20;3.38;;;16.30;48.80;;;;;;6115720;23;20148;-82
2021/01/30 05:30:38;;;;;;;4.63;3.10;;;16.30;48.50;;;;;;6139484;23;20520;-82
2021/01/30 05:33:30;;;;;;;4.20;3.13;;;16.30;48.70;;;;;;6141609;23;20135;-82
2021/01/30 05:35:58;;;;;;;5.20;3.53;;;16.30;48.70;;;;;;6140795;23;20219;-83
2021/01/30 05:38:46;;;;;;;4.82;3.20;;;16.30;48.50;;;;;;6141969;23;20608;-82
2021/01/30 05:41:22;;;;;;;4.20;3.40;;;16.30;48.20;;;;;;6117324;23;20599;-81
2021/01/30 05:43:50;;;;;;;5.00;3.38;;;16.30;48.20;;;;;;6116273;23;20508;-83
2021/01/30 05:46:27;;;;;;;4.13;3.20;;;16.30;48.40;;;;;;6115623;23;20140;-81
2021/01/30 05:48:53;;;;;;;3.85;3.25;;;16.30;48.50;;;;;;6116482;23;20128;-82
2021/01/30 05:51:39;;;;;;;4.90;3.50;;;16.30;48.40;;;;;;6115353;23;20471;-80
2021/01/30 05:54:05;;;;;;;4.45;3.25;;;16.30;48.80;;;;;;6139556;23;20172;-81
2021/01/30 05:56:36;;;;;;;3.92;3.20;;;16.30;48.50;;;;;;6141877;23;20167;-82
2021/01/30 05:59:07;;;;;;;4.10;3.05;;;16.30;48.70;;;;;;6116044;23;20143;-82
2021/01/30 06:01:33;;;;;;;4.47;3.35;;;16.30;48.20;;;;;;6139962;23;20140;-83
2021/01/30 06:04:06;;;;;;;3.80;3.03;;;16.30;48.50;;;;;;6139595;23;20132;-82
2021/01/30 06:06:38;;;;;;;4.75;3.33;;;16.30;48.20;;;;;;6137557;23;20132;-81
2021/01/30 06:09:09;;;;;;;5.35;3.40;;;16.40;48.20;;;;;;6137247;23;20136;-83
2021/01/30 06:12:04;;;;;;;3.90;2.92;;;16.40;48.30;;;;;;6091046;23;20188;-80
2021/01/30 06:15:07;;;;;;;3.47;2.97;;;16.40;48.30;;;;;;6136865;23;20537;-82
2021/01/30 06:17:34;;;;;;;4.65;3.20;;;16.30;48.20;;;;;;6138868;23;20164;-82
2021/01/30 06:20:00;;;;;;;3.63;2.97;;;16.40;48.30;;;;;;6139544;23;20132;-82
2021/01/30 06:22:27;;;;;;;4.15;3.28;;;16.30;48.30;;;;;;6140329;23;20132;-83
2021/01/30 06:24:53;;;;;;;3.85;2.90;;;16.20;48.60;;;;;;6136267;23;20128;-80
2021/01/30 06:27:37;;;;;;;4.05;3.58;;;16.20;48.70;;;;;;6113506;23;20152;-82
2021/01/30 06:30:07;;;;;;;3.58;2.88;;;16.20;49.00;;;;;;6139159;23;20143;-83
2021/01/30 06:32:46;;;;;;;4.07;3.50;;;16.20;48.80;;;;;;6139117;23;20476;-83
2021/01/30 06:35:12;;;;;;;4.25;3.10;;;16.20;48.90;;;;;;6111037;23;20140;-82
2021/01/30 06:37:44;;;;;;;4.63;3.30;;;16.20;49.10;;;;;;6135791;23;20164;-81
2021/01/30 06:40:18;;;;;;;5.07;3.08;;;16.20;48.90;;;;;;6109491;23;20235;-82
2021/01/30 06:42:45;;;;;;;4.57;3.10;;;16.20;49.10;;;;;;6134822;23;20593;-82
2021/01/30 06:45:13;;;;;;;4.60;3.35;;;16.30;48.90;;;;;;6133843;23;20151;-82
2021/01/30 06:47:47;;;;;;;4.07;3.13;;;16.30;48.70;;;;;;6108921;23;20132;-83
2021/01/30 06:50:30;;;;;;;4.28;3.17;;;16.30;48.70;;;;;;6139038;23;20136;-82
2021/01/30 06:53:31;;;;;;;4.85;3.28;;;16.40;48.50;;;;;;6133247;23;20155;-82
2021/01/30 06:56:27;;;;;;;3.55;3.10;;;16.30;48.40;;;;;;6129945;23;20160;-82
2021/01/30 06:59:04;;;;;;;5.05;3.42;;;16.30;48.10;;;;;;6133058;23;20163;-83
2021/01/30 07:01:49;;;;;;;5.22;3.50;;;16.40;48.20;;;;;;6135003;23;20449;-82
2021/01/30 07:04:41;;;;;;;4.93;3.20;;;16.40;48.30;;;;;;6126334;23;20144;-80
2021/01/30 07:07:16;;;;;;;5.22;3.40;;;16.40;48.20;;;;;;6040993;23;20154;-81
2021/01/30 07:09:46;;;;;;;5.82;3.55;;;16.50;48.00;;;;;;6018260;23;20161;-82
2021/01/30 07:12:51;;;;;;;3.30;2.80;;;16.40;47.80;;;;;;6018389;23;20205;-82
2021/01/30 07:15:29;;;;;;;5.00;3.08;;;16.40;47.90;;;;;;5934285;24;20510;-80
2021/01/30 07:18:05;;;;;;;5.22;3.35;;;16.40;47.90;;;;;;5934568;24;20243;-81
2021/01/30 07:21:01;;;;;;;3.55;3.03;;;16.50;47.60;;;;;;5934914;24;20465;-82
2021/01/30 07:23:46;;;;;;;5.50;3.25;;;16.50;47.80;;;;;;5932977;24;20152;-80
2021/01/30 07:26:16;;;;;;;6.85;3.30;;;16.50;48.00;;;;;;5935730;24;20152;-82
2021/01/30 07:28:45;;;;;;;8.10;3.20;;;16.50;47.80;;;;;;5913395;24;20626;-82
2021/01/30 07:31:29;;;;;;;6.25;3.40;;;16.50;48.00;;;;;;5912122;24;20239;-82
2021/01/30 07:34:10;;;;;;;8.63;3.22;;;16.50;47.70;;;;;;5956036;24;20148;-80
2021/01/30 07:37:17;;;;;;;5.68;3.55;;;16.50;47.40;;;;;;5956875;24;20587;-82
2021/01/30 07:40:05;;;;;;;5.15;3.38;;;16.50;47.50;;;;;;5934429;24;20226;-81
2021/01/30 07:42:53;;;;;;;5.95;2.97;;;16.60;47.30;;;;;;5954563;24;20159;-81
2021/01/30 07:46:02;;;;;;;8.10;3.20;;;16.60;47.20;;;;;;6014999;23;20167;-80
2021/01/30 07:48:51;;;;;;;5.28;3.13;;;16.60;47.30;;;;;;5933906;24;20159;-80
2021/01/30 07:52:06;;;;;;;4.93;3.15;;;16.60;47.20;;;;;;5945916;24;20155;-80
2021/01/30 07:54:52;;;;;;;6.00;3.00;;;16.60;47.40;;;;;;5963822;24;20671;-81
2021/01/30 07:58:15;;;;;;;5.97;3.20;;;16.50;47.70;;;;;;5989031;24;20174;-81
2021/01/30 08:00:51;;;;;;;6.43;2.88;;;16.50;47.60;;;;;;5988326;24;20227;-80
2021/01/30 08:03:49;;;;;;;4.03;3.10;;;16.50;47.30;;;;;;5986809;24;20140;-80
2021/01/30 08:06:22;;;;;;;7.57;3.33;;;16.60;47.30;;;;;;5983692;24;20152;-79
2021/01/30 08:09:14;;;;;;;5.57;3.00;;;16.60;47.50;;;;;;5983285;24;20175;-83
2021/01/30 08:11:41;;;;;;;3.80;2.80;;;16.70;46.80;;;;;;5983913;24;20187;-81
2021/01/30 08:14:43;;;;;;;5.70;3.35;;;16.60;47.00;;;;;;5984794;24;20156;-80
2021/01/30 08:17:21;;;;;;;4.90;3.15;;;16.70;47.00;;;;;;5985816;24;20178;-82
2021/01/30 08:20:06;;;;;;;5.22;3.47;;;16.70;47.20;;;;;;5985841;24;20166;-81
2021/01/30 08:22:42;;;;;;;8.60;3.10;;;16.60;47.50;;;;;;5986104;24;20147;-79
2021/01/30 08:25:16;;;;;;;8.07;3.00;;;16.70;46.70;;;;;;6036107;23;20151;-82
2021/01/30 08:27:45;;;;;;;6.07;2.97;;;16.70;47.30;;;;;;6130212;23;20471;-79
2021/01/30 08:30:17;;;;;;;5.38;2.92;;;16.70;47.60;;;;;;6129167;23;20144;-80
2021/01/30 08:32:56;;;;;;;5.10;3.30;;;16.70;47.30;;;;;;6129263;23;20137;-80
2021/01/30 08:35:22;;;;;;;7.05;3.45;;;16.70;47.50;;;;;;6131441;23;20515;-79
2021/01/30 08:38:17;;;;;;;6.22;2.97;;;16.80;47.10;;;;;;6131051;23;20191;-78
2021/01/30 08:40:46;;;;;;;5.07;3.03;;;16.80;47.60;;;;;;6130843;23;20132;-80
2021/01/30 08:43:22;;;;;;;6.40;2.70;;;16.70;47.40;;;;;;6131433;23;20185;-82
2021/01/30 08:45:49;;;;;;;5.90;2.90;;;16.80;47.20;;;;;;6130132;23;20136;-81
2021/01/30 08:48:29;;;;;;;4.55;2.72;;;16.80;47.20;;;;;;6131175;23;20469;-78
2021/01/30 08:50:56;;;;;;;6.05;2.72;;;16.90;47.00;;;;;;6132886;23;20148;-80
2021/01/30 08:53:22;;;;;;;8.25;2.75;;;16.90;47.70;;;;;;6107838;23;20183;-82
2021/01/30 08:56:07;;;;;;;4.80;2.75;;;16.90;47.00;;;;;;6133654;23;20195;-80
2021/01/30 08:58:32;;;;;;;8.82;3.13;;;17.00;46.40;;;;;;6134408;23;20176;-82
2021/01/30 09:01:21;;;;;;;4.15;3.00;;;17.00;47.40;;;;;;6130890;23;20171;-81
2021/01/30 09:04:28;;;;;;;6.05;2.58;;;17.00;47.20;;;;;;6136437;23;20133;-79
2021/01/30 09:07:52;;;;;;;6.55;3.00;;;17.00;46.70;;;;;;6128018;23;20140;-80
2021/01/30 09:10:36;;;;;;;4.80;2.75;;;17.10;46.60;;;;;;6124700;23;20235;-80
2021/01/30 09:13:22;;;;;;;8.80;3.30;;;17.10;47.10;;;;;;6152781;23;20221;-80
2021/01/30 09:15:47;;;;;;;4.72;2.80;;;17.00;46.00;;;;;;6158638;23;20600;-78
2021/01/30 09:18:20;;;;;;;5.03;3.05;;;17.00;46.70;;;;;;6157421;23;20163;-79
2021/01/30 09:20:56;;;;;;;5.93;3.20;;;17.00;46.80;;;;;;6132797;23;20173;-78
2021/01/30 09:23:26;;;;;;;6.63;3.05;;;17.00;47.50;;;;;;6157192;23;20163;-80
2021/01/30 09:26:16;;;;;;;5.32;3.22;;;17.00;47.20;;;;;;6131762;23;20130;-81
2021/01/30 09:28:58;;;;;;;6.28;2.78;;;17.00;46.90;;;;;;6131579;23;20139;-79
2021/01/30 09:31:25;;;;;;;4.65;2.67;;;17.00;47.40;;;;;;6131743;23;20136;-79
2021/01/30 09:34:02;;;;;;;7.03;2.80;;;17.00;47.10;;;;;;6131764;23;20143;-80
2021/01/30 09:36:49;;;;;;;8.55;3.00;;;17.00;47.90;;;;;;6159882;23;20136;-80
2021/01/30 09:39:23;;;;;;;8.95;2.92;;;16.90;48.00;;;;;;6106062;23;20151;-79
2021/01/30 09:41:49;;;;;;;3.33;2.53;;;17.00;47.80;;;;;;6160483;23;20382;-79
2021/01/30 09:44:18;;;;;;;9.18;3.03;;;17.00;47.30;;;;;;6136712;23;20188;-80
2021/01/30 09:46:47;;;;;;;8.15;2.60;;;17.00;47.50;;;;;;6159824;23;20151;-80
2021/01/30 09:49:20;;;;;;;11.32;2.72;;;17.00;47.70;;;;;;6134593;23;20143;-81
2021/01/30 09:51:47;;;;;;;5.45;3.00;;;17.00;47.40;;;;;;6109802;23;20151;-81
2021/01/30 09:54:15;;;;;;;11.27;2.88;;;17.00;47.50;;;;;;6132776;23;20132;-80
2021/01/30 09:56:42;;;;;;;5.80;2.85;;;17.00;48.10;;;;;;6109235;23;20190;-78
2021/01/30 09:59:08;;;;;;;7.88;2.72;;;17.10;47.00;;;;;;6135796;23;20159;-80
2021/01/30 10:01:40;;;;;;;5.93;3.08;;;17.00;46.90;;;;;;6162958;23;20202;-79
2021/01/30 10:04:26;;;;;;;6.35;2.55;;;17.10;47.30;;;;;;6160024;23;20151;-80
2021/01/30 10:06:57;;;;;;;9.88;2.83;;;17.10;48.60;;;;;;6163242;23;20139;-81
2021/01/30 10:09:30;;;;;;;8.32;2.80;;;17.00;47.80;;;;;;6143917;23;20155;-80
2021/01/30 10:11:57;;;;;;;7.78;2.85;;;17.10;47.40;;;;;;6165610;23;20587;-82
2021/01/30 10:14:26;;;;;;;6.00;2.60;;;17.10;46.90;;;;;;6118595;23;20576;-82
2021/01/30 10:17:01;;;;;;;8.60;2.80;;;17.10;46.10;;;;;;6141317;23;20183;-80
2021/01/30 10:19:29;;;;;;;7.13;3.00;;;17.10;47.40;;;;;;6139527;23;20175;-78
2021/01/30 10:21:55;;;;;;;3.13;2.70;;;17.10;47.40;;;;;;6141129;23;20136;-82
2021/01/30 10:24:28;;;;;;;5.88;2.83;;;17.00;47.30;;;;;;6167191;23;20146;-79
2021/01/30 10:27:22;;;;;;;7.60;2.92;;;17.10;46.60;;;;;;6140731;23;20484;-81
2021/01/30 10:29:50;;;;;;;4.50;2.40;;;17.10;46.50;;;;;;6168280;23;20135;-82
2021/01/30 10:32:51;;;;;;;6.78;2.83;;;17.20;47.00;;;;;;6170387;23;20135;-81
2021/01/30 10:35:45;;;;;;;5.35;2.95;;;17.10;47.10;;;;;;6081047;23;20164;-82
2021/01/30 10:38:18;;;;;;;7.22;2.60;;;17.10;47.50;;;;;;6053839;23;20205;-82
2021/01/30 10:40:58;;;;;;;5.03;2.72;;;17.10;47.50;;;;;;6037353;23;20145;-81
2021/01/30 10:43:29;;;;;;;8.35;3.10;;;17.10;47.90;;;;;;6059511;23;20248;-79
2021/01/30 10:45:57;;;;;;;8.52;2.88;;;17.10;47.90;;;;;;6036875;23;20161;-83
2021/01/30 10:48:26;;;;;;;3.78;2.55;;;17.00;48.10;;;;;;6058728;23;20141;-82
2021/01/30 10:51:10;;;;;;;7.53;2.70;;;17.10;48.00;;;;;;6055342;23;20681;-82
2021/01/30 10:53:37;;;;;;;7.20;2.83;;;17.10;48.20;;;;;;6055311;23;20157;-80
2021/01/30 10:56:23;;;;;;;5.30;2.80;;;17.10;48.20;;;;;;6033443;23;20160;-80
2021/01/30 10:59:11;;;;;;;6.22;2.92;;;17.10;48.20;;;;;;6057707;23;20161;-79
2021/01/30 11:01:41;;;;;;;8.02;2.92;;;17.20;47.60;;;;;;6063644;23;20150;-80
2021/01/30 11:04:23;;;;;;;7.25;2.65;;;17.40;47.30;;;;;;6058924;23;20165;-81
2021/01/30 11:07:02;;;;;;;11.52;3.10;;;17.40;47.50;;;;;;6035802;23;20172;-80
2021/01/30 11:09:33;;;;;;;9.85;2.78;;;17.30;47.50;;;;;;6052697;23;20157;-81
2021/01/30 11:12:08;;;;;;;8.52;2.60;;;17.30;47.50;;;;;;6137331;23;20206;-82
2021/01/30 11:14:35;;;;;;;4.75;2.75;;;17.30;47.30;;;;;;6140339;23;20175;-80
2021/01/30 11:17:02;;;;;;;8.00;2.58;;;17.20;47.80;;;;;;6117263;23;20638;-80
2021/01/30 11:19:35;;;;;;;6.38;2.90;;;17.20;48.00;;;;;;6121008;23;20163;-80
2021/01/30 11:22:25;;;;;;;8.20;3.10;;;17.10;48.20;;;;;;6144445;23;20159;-80
2021/01/30 11:25:04;;;;;;;4.85;2.60;;;17.10;48.20;;;;;;6118930;23;20235;-80
2021/01/30 11:27:45;;;;;;;7.68;3.13;;;17.00;48.10;;;;;;6148442;23;20150;-82
2021/01/30 11:30:34;;;;;;;7.20;2.65;;;17.00;48.00;;;;;;6146681;23;20121;-81
2021/01/30 11:33:18;;;;;;;7.32;3.10;;;17.00;48.30;;;;;;6144453;23;20219;-82
2021/01/30 11:35:55;;;;;;;6.20;2.63;;;17.00;48.40;;;;;;6095788;23;20148;-79
2021/01/30 11:38:28;;;;;;;6.45;3.10;;;17.00;48.30;;;;;;6122481;23;20191;-81
2021/01/30 11:41:04;;;;;;;8.07;2.63;;;17.00;48.50;;;;;;6148801;23;20160;-80
2021/01/30 11:43:41;;;;;;;6.47;2.70;;;17.00;48.10;;;;;;6119164;23;20237;-81
2021/01/30 11:46:19;;;;;;;9.10;2.90;;;17.10;48.40;;;;;;6061160;23;20279;-81
2021/01/30 11:48:50;;;;;;;5.07;2.80;;;17.00;48.30;;;;;;6151020;23;20136;-80
2021/01/30 11:51:30;;;;;;;7.22;2.63;;;17.10;48.50;;;;;;6126127;23;20139;-80
2021/01/30 11:54:08;;;;;;;6.10;2.65;;;17.10;48.10;;;;;;6131546;23;20175;-81
2021/01/30 11:56:48;;;;;;;8.45;3.15;;;17.10;48.20;;;;;;6055817;23;20178;-80
2021/01/30 11:59:15;;;;;;;4.95;2.65;;;17.20;48.40;;;;;;6149506;23;20139;-80
2021/01/30 12:01:44;;;;;;;9.63;2.95;;;17.20;48.20;;;;;;6120468;23;20159;-81
2021/01/30 12:04:24;;;;;;;8.60;3.25;;;17.20;48.20;;;;;;6127826;23;20119;-81
2021/01/30 12:07:08;;;;;;;5.68;2.75;;;17.20;48.30;;;;;;6128255;23;20131;-82
2021/01/30 12:09:40;;;;;;;7.57;3.00;;;17.20;48.20;;;;;;6150430;23;20139;-81
2021/01/30 12:12:08;;;;;;;10.18;3.33;;;17.20;48.20;;;;;;6128973;23;20139;-79
2021/01/30 12:14:36;;;;;;;7.25;3.38;;;17.20;48.20;;;;;;6129210;23;20233;-82
2021/01/30 12:17:06;;;;;;;7.72;2.75;;;17.20;48.00;;;;;;6131101;23;20251;-80
2021/01/30 12:19:40;;;;;;;6.07;2.67;;;17.20;48.00;;;;;;6127611;23;20159;-81
2021/01/30 12:22:09;;;;;;;7.60;2.63;;;17.20;48.20;;;;;;6177163;23;20216;-82
2021/01/30 12:24:36;;;;;;;11.40;2.83;;;17.20;48.20;;;;;;6103586;23;20150;-80
2021/01/30 12:27:09;;;;;;;8.65;3.20;;;17.20;47.90;;;;;;6127933;23;20128;-81
2021/01/30 12:29:44;;;;;;;14.10;3.75;;;17.30;49.00;;;;;;6104019;23;20147;-80
2021/01/30 12:32:18;;;;;;;9.70;3.00;;;17.30;48.60;;;;;;6126597;23;20135;-78
2021/01/30 12:34:44;;;;;;;13.90;3.17;;;17.30;48.00;;;;;;6176061;23;20131;-78
2021/01/30 12:37:13;;;;;;;18.42;3.55;;;17.40;47.90;;;;;;6152389;23;20172;-80
2021/01/30 12:39:42;;;;;;;12.20;3.13;;;17.40;48.40;;;;;;6129073;23;20247;-80
2021/01/30 12:42:17;;;;;;;12.25;3.17;;;17.40;48.50;;;;;;6129939;23;20147;-81
2021/01/30 12:44:51;;;;;;;8.52;2.65;;;17.40;48.60;;;;;;6133674;23;20205;-79
2021/01/30 12:47:29;;;;;;;10.57;3.17;;;17.40;48.40;;;;;;6121605;23;20160;-78
2021/01/30 12:49:57;;;;;;;12.63;3.10;;;17.30;48.10;;;;;;6091065;23;20148;-81
2021/01/30 12:52:23;;;;;;;11.23;3.42;;;17.30;48.00;;;;;;6091292;23;20179;-80
2021/01/30 12:54:48;;;;;;;11.05;3.20;;;17.30;48.70;;;;;;6111600;23;20188;-78
2021/01/30 12:57:14;;;;;;;10.40;3.60;;;17.30;48.60;;;;;;6104012;23;20434;-79
2021/01/30 12:59:41;;;;;;;20.73;4.03;;;17.30;48.20;;;;;;6101938;23;20137;-79
2021/01/30 13:02:08;;;;;;;10.95;3.10;;;17.30;48.70;;;;;;6129776;23;20149;-79
2021/01/30 13:04:34;;;;;;;14.25;3.20;;;17.40;48.40;;;;;;6103891;23;20514;-79
2021/01/30 13:07:00;;;;;;;8.45;3.10;;;17.50;47.50;;;;;;6131249;23;20136;-80
2021/01/30 13:09:26;;;;;;;9.07;3.15;;;17.60;47.90;;;;;;6137119;23;20155;-81
2021/01/30 13:11:51;;;;;;;11.20;3.25;;;17.60;48.00;;;;;;6110905;23;20136;-81
2021/01/30 13:14:17;;;;;;;15.18;3.97;;;17.60;48.20;;;;;;6108707;23;20211;-79
2021/01/30 13:16:46;;;;;;;17.95;4.05;;;17.50;48.30;;;;;;6110607;23;20235;-81
2021/01/30 13:19:14;;;;;;;18.10;3.33;;;17.50;48.00;;;;;;6091835;23;20139;-82
2021/01/30 13:21:46;;;;;;;10.10;3.25;;;17.50;48.60;;;;;;6091821;23;20441;-80